Aberdeen, Pennsylvania
Current Conditions -  °F | °C
As of 8:56 PM on Sunday 21 Dec 2014 (Local Time) from KMDT Reporting Station
Few Clouds Few Clouds  
Wind Chill: 25°   Ceiling: Unl
Heat Index: 25°   Visibility: 9mi
Dew Point: 20°   Wind: 0mph
Humidity: 81%   Direction: NA
Pressure: 30.33"   Gusts: NA
Location:  40.1674°N, 76.6045°W
Report Text: KMDT 220156Z 00000KT 9SM FEW200 M04/M07 A3033 RMK AO2 SLP276 T10391067 $
Loading
Personal Weather Stations






























Interactive Weather Map New forecast layout! Learn more

10-Day Weather Forecast

Advertisements
Track Severe Weather on mobile